Time;durP1;ratioP1;P1;durP2;ratioP2;P2;SDS_P1;SDS_P2;PMS_P1;PMS_P2;Temp;Humidity;BMP_temperature;BMP_pressure;BME280_temperature;BME280_humidity;BME280_pressure;Samples;Min_cycle;Max_cycle;Signal;HPM_P1;HPM_P2
2021/09/14 00:01:00;;;;;;;9.82;6.65;;;;;;;;;;349979;151;857725;-57
2021/09/14 00:02:02;;;;;;;11.55;7.39;;;;;;;;;;350046;153;857225;-57
2021/09/14 00:03:04;;;;;;;7.66;6.34;;;;;;;;;;349974;152;864969;-57
2021/09/14 00:04:05;;;;;;;12.34;6.71;;;;;;;;;;349987;151;865818;-57
2021/09/14 00:05:07;;;;;;;8.60;6.36;;;;;;;;;;349911;152;858830;-57
2021/09/14 00:06:09;;;;;;;11.44;6.01;;;;;;;;;;351133;151;858574;-58
2021/09/14 00:07:11;;;;;;;10.94;6.70;;;;;;;;;;349300;152;859567;-57
2021/09/14 00:08:12;;;;;;;11.33;6.45;;;;;;;;;;349201;152;857272;-57
2021/09/14 00:09:14;;;;;;;7.97;6.26;;;;;;;;;;349883;152;857398;-58
2021/09/14 00:10:16;;;;;;;11.57;6.99;;;;;;;;;;349795;152;857296;-57
2021/09/14 00:11:18;;;;;;;9.31;6.32;;;;;;;;;;350148;152;857243;-57
2021/09/14 00:12:19;;;;;;;11.01;6.51;;;;;;;;;;350724;152;857222;-58
2021/09/14 00:13:21;;;;;;;8.61;6.68;;;;;;;;;;349645;153;859105;-57
2021/09/14 00:14:22;;;;;;;13.99;7.04;;;;;;;;;;350466;152;859272;-57
2021/09/14 00:15:24;;;;;;;10.77;7.24;;;;;;;;;;349548;152;857359;-57
2021/09/14 00:16:26;;;;;;;15.87;6.90;;;;;;;;;;350737;152;865554;-57
2021/09/14 00:17:27;;;;;;;12.30;6.98;;;;;;;;;;350210;152;857247;-57
2021/09/14 00:18:29;;;;;;;12.19;7.94;;;;;;;;;;349884;152;857232;-57
2021/09/14 00:19:31;;;;;;;8.45;6.03;;;;;;;;;;351575;152;857447;-57
2021/09/14 00:20:33;;;;;;;10.04;7.07;;;;;;;;;;350969;151;857191;-57
2021/09/14 00:21:34;;;;;;;8.70;7.15;;;;;;;;;;350156;151;857403;-57
2021/09/14 00:22:36;;;;;;;11.51;6.83;;;;;;;;;;349655;151;857267;-58
2021/09/14 00:23:37;;;;;;;8.55;6.51;;;;;;;;;;350548;152;857188;-57
2021/09/14 00:24:39;;;;;;;11.42;6.05;;;;;;;;;;348228;152;859308;-57
2021/09/14 00:25:41;;;;;;;9.89;6.80;;;;;;;;;;349514;151;859059;-57
2021/09/14 00:26:42;;;;;;;11.87;7.17;;;;;;;;;;350861;152;857353;-57
2021/09/14 00:27:44;;;;;;;10.47;6.27;;;;;;;;;;350192;152;857323;-57
2021/09/14 00:28:45;;;;;;;10.28;6.19;;;;;;;;;;349136;152;857339;-58
2021/09/14 00:29:47;;;;;;;7.91;6.47;;;;;;;;;;349789;152;857841;-57
2021/09/14 00:30:50;;;;;;;11.63;6.33;;;;;;;;;;350641;152;857332;-57
2021/09/14 00:31:51;;;;;;;9.62;6.63;;;;;;;;;;349975;153;865260;-58
2021/09/14 00:32:53;;;;;;;9.90;6.55;;;;;;;;;;349184;152;856797;-57
2021/09/14 00:33:54;;;;;;;8.36;6.00;;;;;;;;;;349564;152;857815;-57
2021/09/14 00:34:56;;;;;;;8.81;6.59;;;;;;;;;;350059;152;857339;-57
2021/09/14 00:35:58;;;;;;;7.66;6.01;;;;;;;;;;350218;152;857211;-56
2021/09/14 00:36:59;;;;;;;10.71;6.78;;;;;;;;;;349986;152;863902;-57
2021/09/14 00:38:01;;;;;;;7.66;6.40;;;;;;;;;;350202;153;865382;-57
2021/09/14 00:39:03;;;;;;;7.41;6.01;;;;;;;;;;348294;152;864976;-57
2021/09/14 00:40:05;;;;;;;10.17;6.15;;;;;;;;;;349890;151;858196;-57
2021/09/14 00:41:07;;;;;;;10.26;6.59;;;;;;;;;;350303;152;865047;-58
2021/09/14 00:42:08;;;;;;;9.22;6.49;;;;;;;;;;350925;152;858788;-58
2021/09/14 00:43:12;;;;;;;10.46;6.26;;;;;;;;;;357432;148;865452;-58
2021/09/14 00:44:13;;;;;;;10.94;5.96;;;;;;;;;;359239;147;857264;-58
2021/09/14 00:45:15;;;;;;;13.46;6.70;;;;;;;;;;358965;147;859350;-58
2021/09/14 00:46:17;;;;;;;8.31;6.06;;;;;;;;;;358416;147;859772;-58
2021/09/14 00:47:18;;;;;;;9.31;5.89;;;;;;;;;;358434;148;864856;-58
2021/09/14 00:48:20;;;;;;;12.25;6.06;;;;;;;;;;357612;147;857312;-58
2021/09/14 00:49:21;;;;;;;8.10;6.38;;;;;;;;;;354801;147;857258;-58
2021/09/14 00:50:25;;;;;;;8.15;5.56;;;;;;;;;;358907;148;866948;-58
2021/09/14 00:51:26;;;;;;;7.24;5.84;;;;;;;;;;359432;147;857376;-58
2021/09/14 00:52:28;;;;;;;8.12;5.81;;;;;;;;;;359098;147;857305;-58
2021/09/14 00:53:29;;;;;;;13.33;6.76;;;;;;;;;;359100;150;858901;-58
2021/09/14 00:54:31;;;;;;;9.42;6.31;;;;;;;;;;358568;147;865969;-57
2021/09/14 00:55:33;;;;;;;8.48;6.09;;;;;;;;;;357992;147;859578;-58
2021/09/14 00:56:37;;;;;;;8.70;6.34;;;;;;;;;;357769;148;858865;-58
2021/09/14 00:57:38;;;;;;;11.46;6.40;;;;;;;;;;358079;148;858942;-58
2021/09/14 00:58:40;;;;;;;10.56;5.74;;;;;;;;;;359447;147;858605;-58
2021/09/14 00:59:42;;;;;;;10.03;6.20;;;;;;;;;;356634;149;857188;-58
2021/09/14 01:00:44;;;;;;;10.99;7.07;;;;;;;;;;359618;147;857604;-58
2021/09/14 01:01:46;;;;;;;12.16;6.14;;;;;;;;;;359366;148;857201;-58
2021/09/14 01:02:47;;;;;;;9.11;5.96;;;;;;;;;;359519;148;861083;-57
2021/09/14 01:03:49;;;;;;;11.88;5.78;;;;;;;;;;360186;147;857252;-58
2021/09/14 01:04:50;;;;;;;9.83;5.31;;;;;;;;;;358801;148;866570;-57
2021/09/14 01:05:52;;;;;;;9.39;5.49;;;;;;;;;;358822;147;857477;-57
2021/09/14 01:06:54;;;;;;;8.92;5.36;;;;;;;;;;357825;148;858873;-58
2021/09/14 01:07:55;;;;;;;9.76;6.28;;;;;;;;;;357420;147;866609;-58
2021/09/14 01:08:58;;;;;;;8.18;6.53;;;;;;;;;;357647;147;857164;-58
2021/09/14 01:10:00;;;;;;;7.95;5.67;;;;;;;;;;357461;147;857346;-58
2021/09/14 01:11:01;;;;;;;8.69;5.91;;;;;;;;;;357624;148;865242;-58
2021/09/14 01:12:04;;;;;;;11.40;6.25;;;;;;;;;;358165;147;857252;-58
2021/09/14 01:13:05;;;;;;;8.76;6.22;;;;;;;;;;358925;147;857241;-57
2021/09/14 01:14:07;;;;;;;10.32;6.71;;;;;;;;;;359174;147;858159;-57
2021/09/14 01:15:09;;;;;;;11.59;6.27;;;;;;;;;;359286;147;857305;-58
2021/09/14 01:16:11;;;;;;;9.95;6.28;;;;;;;;;;358654;147;857219;-57
2021/09/14 01:17:13;;;;;;;9.14;6.49;;;;;;;;;;357422;148;865156;-57
2021/09/14 01:18:15;;;;;;;8.75;6.56;;;;;;;;;;358013;147;865073;-58
2021/09/14 01:19:16;;;;;;;9.86;6.75;;;;;;;;;;361902;148;857275;-57
2021/09/14 01:20:18;;;;;;;8.15;5.85;;;;;;;;;;358340;148;857170;-58
2021/09/14 01:21:22;;;;;;;11.15;6.69;;;;;;;;;;358388;147;857102;-58
2021/09/14 01:22:28;;;;;;;9.91;6.45;;;;;;;;;;357523;147;857343;-58
2021/09/14 01:23:29;;;;;;;10.16;6.26;;;;;;;;;;358804;148;857257;-58
2021/09/14 01:24:31;;;;;;;10.14;6.44;;;;;;;;;;358936;148;857233;-58
2021/09/14 01:25:32;;;;;;;10.14;6.14;;;;;;;;;;355321;147;857383;-57
2021/09/14 01:26:34;;;;;;;10.42;6.54;;;;;;;;;;358260;147;859695;-57
2021/09/14 01:27:36;;;;;;;15.26;6.56;;;;;;;;;;358883;148;865709;-57
2021/09/14 01:28:37;;;;;;;14.59;6.38;;;;;;;;;;358738;147;857344;-58
2021/09/14 01:30:59;;;;;;;7.47;6.24;;;;;;;;;;357602;147;856432;-58
2021/09/14 01:32:01;;;;;;;10.17;6.14;;;;;;;;;;360296;148;856228;-58
2021/09/14 01:33:04;;;;;;;17.83;6.11;;;;;;;;;;361856;148;857111;-58
2021/09/14 01:34:06;;;;;;;11.86;6.24;;;;;;;;;;360484;148;857309;-58
2021/09/14 01:35:09;;;;;;;10.24;6.29;;;;;;;;;;359421;147;857233;-57
2021/09/14 01:36:11;;;;;;;10.67;6.39;;;;;;;;;;354412;148;865064;-58
2021/09/14 01:37:12;;;;;;;11.14;5.99;;;;;;;;;;358999;148;857807;-57
2021/09/14 01:38:14;;;;;;;12.87;6.58;;;;;;;;;;359717;148;865675;-57
2021/09/14 01:39:15;;;;;;;9.78;6.63;;;;;;;;;;358559;147;857346;-59
2021/09/14 01:40:19;;;;;;;10.26;6.28;;;;;;;;;;357770;148;857189;-57
2021/09/14 01:41:20;;;;;;;14.12;6.61;;;;;;;;;;357182;147;859951;-57
2021/09/14 01:42:22;;;;;;;12.40;6.46;;;;;;;;;;357396;147;857258;-59
2021/09/14 01:43:24;;;;;;;11.65;6.04;;;;;;;;;;358107;149;857285;-57
2021/09/14 01:44:25;;;;;;;9.90;5.95;;;;;;;;;;359494;148;857141;-58
2021/09/14 01:45:27;;;;;;;11.07;6.52;;;;;;;;;;359435;148;857218;-57
2021/09/14 01:46:29;;;;;;;14.13;6.66;;;;;;;;;;358857;147;857191;-57
2021/09/14 01:47:31;;;;;;;10.61;6.24;;;;;;;;;;357569;149;857641;-57
2021/09/14 01:48:32;;;;;;;13.76;6.79;;;;;;;;;;359770;148;864869;-57
2021/09/14 01:49:34;;;;;;;10.09;5.79;;;;;;;;;;358712;148;858925;-57
2021/09/14 01:50:36;;;;;;;11.81;6.15;;;;;;;;;;357798;149;858800;-57
2021/09/14 01:51:37;;;;;;;8.36;5.63;;;;;;;;;;359836;147;859826;-57
2021/09/14 01:52:39;;;;;;;8.54;5.69;;;;;;;;;;358751;147;865108;-58
2021/09/14 01:53:41;;;;;;;10.51;6.14;;;;;;;;;;358179;149;857147;-57
2021/09/14 01:54:43;;;;;;;9.78;5.47;;;;;;;;;;355286;150;857258;-57
2021/09/14 01:55:45;;;;;;;7.56;5.58;;;;;;;;;;358919;148;857182;-57
2021/09/14 01:56:47;;;;;;;13.93;6.29;;;;;;;;;;359598;147;859883;-57
2021/09/14 01:57:50;;;;;;;11.33;5.76;;;;;;;;;;359670;147;857285;-58
2021/09/14 01:58:52;;;;;;;9.49;6.03;;;;;;;;;;358050;148;865932;-58
2021/09/14 01:59:56;;;;;;;8.75;5.99;;;;;;;;;;356713;147;865036;-57
2021/09/14 02:01:20;;;;;;;12.98;6.47;;;;;;;;;;358459;148;857789;-57
2021/09/14 02:02:21;;;;;;;11.96;6.07;;;;;;;;;;355146;148;858523;-57
2021/09/14 02:03:23;;;;;;;7.32;5.49;;;;;;;;;;357533;147;857655;-57
2021/09/14 02:04:35;;;;;;;7.70;5.38;;;;;;;;;;358848;147;857773;-58
2021/09/14 02:09:15;;;;;;;8.09;5.65;;;;;;;;;;358770;147;857241;-58
2021/09/14 02:40:33;;;;;;;10.29;5.43;;;;;;;;;;358050;147;857308;-58
2021/09/14 02:41:36;;;;;;;9.19;6.63;;;;;;;;;;359166;149;857192;-60
2021/09/14 02:42:39;;;;;;;9.11;6.01;;;;;;;;;;355751;148;858339;-58
2021/09/14 02:59:17;;;;;;;7.73;3.78;;;;;;;;;;357197;149;857193;-58
2021/09/14 03:00:20;;;;;;;7.14;3.65;;;;;;;;;;359594;149;866155;-59
2021/09/14 03:01:22;;;;;;;4.51;4.06;;;;;;;;;;357376;148;857226;-58
2021/09/14 03:02:24;;;;;;;6.20;3.88;;;;;;;;;;357001;148;859025;-58
2021/09/14 03:03:26;;;;;;;4.98;3.11;;;;;;;;;;358618;148;864794;-58
2021/09/14 03:04:28;;;;;;;6.70;4.03;;;;;;;;;;358963;148;866619;-58
2021/09/14 03:05:30;;;;;;;6.48;3.93;;;;;;;;;;356868;148;858953;-58
2021/09/14 03:06:34;;;;;;;5.45;4.16;;;;;;;;;;357233;148;859239;-57
2021/09/14 03:07:35;;;;;;;9.74;4.09;;;;;;;;;;356265;149;859438;-58
2021/09/14 03:08:40;;;;;;;6.45;3.99;;;;;;;;;;356309;148;862484;-57
2021/09/14 03:09:42;;;;;;;6.24;4.62;;;;;;;;;;357013;148;857315;-57
2021/09/14 03:10:44;;;;;;;5.25;4.27;;;;;;;;;;359166;148;858484;-57
2021/09/14 03:11:45;;;;;;;8.32;5.81;;;;;;;;;;360723;148;857662;-58
2021/09/14 03:12:47;;;;;;;10.08;5.11;;;;;;;;;;355309;148;857220;-57
2021/09/14 03:13:48;;;;;;;9.81;4.71;;;;;;;;;;356420;149;859034;-57
2021/09/14 03:14:50;;;;;;;6.17;4.53;;;;;;;;;;357944;148;859631;-57
2021/09/14 03:15:52;;;;;;;8.05;5.00;;;;;;;;;;357419;149;865136;-57
2021/09/14 03:16:54;;;;;;;6.01;4.23;;;;;;;;;;356171;148;858704;-57
2021/09/14 03:17:55;;;;;;;6.86;4.96;;;;;;;;;;354590;149;859692;-58
2021/09/14 03:18:57;;;;;;;5.61;4.24;;;;;;;;;;357153;148;857609;-58
2021/09/14 03:19:58;;;;;;;5.85;4.40;;;;;;;;;;354984;148;857201;-57
2021/09/14 03:21:01;;;;;;;7.21;4.36;;;;;;;;;;358037;149;857277;-58
2021/09/14 03:22:03;;;;;;;8.41;4.57;;;;;;;;;;355943;148;857176;-57
2021/09/14 03:23:04;;;;;;;5.08;4.23;;;;;;;;;;359094;148;857718;-58
2021/09/14 03:24:06;;;;;;;6.61;4.57;;;;;;;;;;355870;148;865681;-58
2021/09/14 03:25:08;;;;;;;5.37;4.09;;;;;;;;;;355709;150;856187;-57
2021/09/14 03:26:11;;;;;;;6.07;4.20;;;;;;;;;;355841;149;856067;-57
2021/09/14 03:27:12;;;;;;;7.63;4.03;;;;;;;;;;357459;148;856402;-57
2021/09/14 03:28:14;;;;;;;17.06;4.38;;;;;;;;;;357718;149;863620;-57
2021/09/14 03:29:17;;;;;;;7.54;4.34;;;;;;;;;;357456;149;856198;-57
2021/09/14 03:30:18;;;;;;;4.98;4.20;;;;;;;;;;356460;149;858778;-57
2021/09/14 03:31:20;;;;;;;8.52;4.86;;;;;;;;;;350589;152;856570;-58
2021/09/14 03:32:22;;;;;;;4.71;3.91;;;;;;;;;;347209;154;856086;-57
2021/09/14 03:33:23;;;;;;;5.69;4.67;;;;;;;;;;349701;152;863536;-57
2021/09/14 03:34:25;;;;;;;6.90;4.15;;;;;;;;;;350039;151;856740;-57
2021/09/14 03:35:29;;;;;;;5.51;4.58;;;;;;;;;;346346;154;863820;-56
2021/09/14 03:36:30;;;;;;;7.19;5.05;;;;;;;;;;343473;155;856178;-57
2021/09/14 03:37:32;;;;;;;9.41;5.58;;;;;;;;;;340378;154;863714;-57
2021/09/14 03:38:33;;;;;;;5.79;5.19;;;;;;;;;;342202;155;863735;-57
2021/09/14 03:41:25;;;;;;;12.84;4.78;;;;;;;13.12;67.43;99823.16;372316;142;882020;-57
2021/09/14 03:42:27;;;;;;;4.80;4.23;;;;;;;12.99;67.29;99832.09;361035;145;857175;-57
2021/09/14 03:43:28;;;;;;;14.64;4.67;;;;;;;12.97;67.20;99824.34;362981;145;857677;-57
2021/09/14 03:44:30;;;;;;;8.48;5.23;;;;;;;12.97;67.43;99828.67;362975;145;863918;-57
2021/09/14 03:45:32;;;;;;;9.21;4.76;;;;;;;12.97;67.62;99833.86;362021;145;865633;-57
2021/09/14 03:46:34;;;;;;;15.61;6.27;;;;;;;12.98;67.41;99827.78;361776;145;864838;-56
2021/09/14 03:47:36;;;;;;;11.85;4.63;;;;;;;12.98;67.65;99827.78;363111;144;857223;-56
2021/09/14 03:48:37;;;;;;;21.59;4.99;;;;;;;12.98;67.92;99823.45;363209;146;866940;-57
2021/09/14 03:49:39;;;;;;;27.59;5.38;;;;;;;13.00;68.03;99829.48;363408;144;865147;-57
2021/09/14 03:50:42;;;;;;;24.52;5.11;;;;;;;12.99;67.62;99830.36;362869;145;866153;-56
2021/09/14 03:51:44;;;;;;;13.13;5.51;;;;;;;12.95;67.61;99828.71;362238;145;864788;-56
2021/09/14 03:52:46;;;;;;;8.74;5.26;;;;;;;12.92;67.95;99826.17;363050;145;857194;-56
2021/09/14 03:53:47;;;;;;;5.99;4.48;;;;;;;12.89;68.14;99831.44;364467;144;864752;-57
2021/09/14 03:54:49;;;;;;;8.05;4.68;;;;;;;12.91;68.46;99832.26;362907;144;864836;-57
2021/09/14 03:55:51;;;;;;;5.90;4.75;;;;;;;12.94;68.16;99833.92;363787;145;865287;-57
2021/09/14 03:56:54;;;;;;;5.09;4.55;;;;;;;12.92;67.89;99833.97;362509;145;859493;-56
2021/09/14 03:57:55;;;;;;;6.58;4.26;;;;;;;12.92;68.19;99836.56;365682;146;864811;-56
2021/09/14 03:58:57;;;;;;;7.75;5.24;;;;;;;12.93;68.31;99837.41;363778;145;864727;-57
2021/09/14 03:59:59;;;;;;;8.43;4.41;;;;;;;;;;364288;144;864671;-56
2021/09/14 04:01:01;;;;;;;4.90;4.39;;;;;;;;;;363063;144;864694;-57
2021/09/14 04:02:10;;;;;;;6.74;3.96;;;;;;;;;;364471;145;858201;-56
2021/09/14 04:03:08;;;;;;;9.48;4.46;;;;;;;;;;363725;144;863659;-57
2021/09/14 04:04:28;;;;;;;8.92;5.21;;;;;;;;;;363706;144;865035;-58
2021/09/14 04:06:52;;;;;;;11.73;5.57;;;;;;;;;;363883;144;857567;-59
2021/09/14 04:09:03;;;;;;;7.02;5.38;;;;;;;;;;364541;145;857061;-59
2021/09/14 04:10:05;;;;;;;8.12;5.31;;;;;;;;;;364109;145;858633;-59
2021/09/14 04:11:07;;;;;;;6.24;5.23;;;;;;;;;;363066;145;857220;-59
2021/09/14 04:12:09;;;;;;;7.81;5.12;;;;;;;;;;363821;144;857868;-60
2021/09/14 04:13:10;;;;;;;6.50;5.14;;;;;;;;;;368402;145;857219;-56
2021/09/14 04:14:12;;;;;;;6.67;5.16;;;;;;;;;;365026;144;857436;-55
2021/09/14 04:15:13;;;;;;;18.41;5.73;;;;;;;;;;364032;144;864806;-56
2021/09/14 04:16:15;;;;;;;10.58;6.38;;;;;;;;;;363213;145;862683;-55
2021/09/14 04:17:17;;;;;;;6.46;5.31;;;;;;;;;;363785;144;859719;-59
2021/09/14 04:18:19;;;;;;;6.17;5.00;;;;;;;;;;364487;144;863661;-58
2021/09/14 04:19:20;;;;;;;5.96;5.02;;;;;;;;;;364833;144;857206;-61
2021/09/14 04:20:22;;;;;;;7.52;5.50;;;;;;;;;;363100;147;857228;-58
2021/09/14 04:21:24;;;;;;;5.52;4.68;;;;;;;;;;364243;144;858582;-56
2021/09/14 04:22:26;;;;;;;5.07;4.30;;;;;;;;;;363488;145;866656;-55
2021/09/14 04:23:27;;;;;;;4.91;4.40;;;;;;;;;;364433;145;860008;-55
2021/09/14 04:24:29;;;;;;;4.59;4.14;;;;;;;;;;363520;144;856508;-55
2021/09/14 04:25:30;;;;;;;4.77;3.74;;;;;;;;;;364969;144;857779;-56
2021/09/14 04:26:32;;;;;;;6.91;4.11;;;;;;;;;;363289;144;865098;-54
2021/09/14 04:27:34;;;;;;;6.34;3.79;;;;;;;;;;365632;145;857106;-57
2021/09/14 04:28:36;;;;;;;6.93;3.78;;;;;;;;;;365302;144;857289;-57
2021/09/14 04:29:37;;;;;;;7.00;3.90;;;;;;;;;;363814;144;857596;-56
2021/09/14 04:30:40;;;;;;;6.23;4.89;;;;;;;;;;363560;145;857248;-57
2021/09/14 04:31:42;;;;;;;8.51;4.72;;;;;;;;;;364107;144;859908;-56
2021/09/14 04:32:44;;;;;;;7.15;5.47;;;;;;;;;;363530;144;857472;-56
2021/09/14 04:33:45;;;;;;;9.84;5.74;;;;;;;;;;365252;144;857255;-58
2021/09/14 04:34:47;;;;;;;8.66;6.05;;;;;;;;;;363326;145;860138;-57
2021/09/14 04:35:48;;;;;;;7.69;5.59;;;;;;;;;;365809;144;857933;-56
2021/09/14 04:36:52;;;;;;;7.61;6.09;;;;;;;;;;363564;144;860704;-57
2021/09/14 04:37:53;;;;;;;9.66;5.86;;;;;;;;;;363442;145;865428;-57
2021/09/14 04:38:55;;;;;;;10.88;5.71;;;;;;;;;;363076;144;857261;-57
2021/09/14 04:39:57;;;;;;;10.38;6.35;;;;;;;;;;363642;145;860317;-57
2021/09/14 04:40:58;;;;;;;10.14;6.55;;;;;;;;;;368145;144;857059;-56
2021/09/14 04:42:00;;;;;;;12.39;5.55;;;;;;;;;;365551;145;857127;-56
2021/09/14 04:43:02;;;;;;;8.28;5.37;;;;;;;;;;367080;144;857328;-56
2021/09/14 04:44:04;;;;;;;8.09;6.22;;;;;;;;;;363837;144;864665;-57
2021/09/14 04:45:07;;;;;;;6.01;5.41;;;;;;;;;;363513;145;857132;-56
2021/09/14 04:46:09;;;;;;;6.62;5.42;;;;;;;;;;363544;145;857195;-57
2021/09/14 04:47:11;;;;;;;5.21;4.72;;;;;;;;;;365013;144;858342;-56
2021/09/14 04:48:12;;;;;;;8.34;5.16;;;;;;;;;;363661;144;858446;-57
2021/09/14 04:49:14;;;;;;;5.52;4.97;;;;;;;;;;363441;145;857708;-56
2021/09/14 04:50:16;;;;;;;7.93;5.43;;;;;;;;;;364981;144;859042;-57
2021/09/14 04:51:17;;;;;;;7.14;6.04;;;;;;;;;;365809;144;858824;-57
2021/09/14 04:52:19;;;;;;;7.20;6.04;;;;;;;;;;363466;145;864903;-57
2021/09/14 04:53:20;;;;;;;7.29;6.17;;;;;;;;;;366252;145;860073;-58
2021/09/14 04:54:22;;;;;;;11.82;6.25;;;;;;;;;;364135;144;858676;-57
2021/09/14 04:55:24;;;;;;;10.49;6.86;;;;;;;;;;363520;144;858399;-56
2021/09/14 04:56:25;;;;;;;9.28;7.01;;;;;;;;;;363047;145;864906;-57
2021/09/14 04:57:27;;;;;;;10.87;7.26;;;;;;;;;;364967;145;857232;-58
2021/09/14 04:58:29;;;;;;;13.03;7.33;;;;;;;;;;364720;144;857705;-57
2021/09/14 04:59:31;;;;;;;8.23;6.92;;;;;;;;;;365178;144;857595;-56
2021/09/14 05:00:33;;;;;;;10.43;7.85;;;;;;;;;;365633;145;859112;-57
2021/09/14 05:01:35;;;;;;;10.08;7.23;;;;;;;;;;363799;144;858064;-57
2021/09/14 05:02:36;;;;;;;9.58;6.73;;;;;;;;;;363437;144;858651;-57
2021/09/14 05:03:38;;;;;;;9.91;7.96;;;;;;;;;;364985;145;857826;-58
2021/09/14 05:04:39;;;;;;;8.57;6.06;;;;;;;;;;363638;144;857442;-57
2021/09/14 05:05:41;;;;;;;10.41;7.32;;;;;;;;;;363959;144;857232;-58
2021/09/14 05:06:43;;;;;;;9.87;7.12;;;;;;;;;;363446;144;858874;-58
2021/09/14 05:07:45;;;;;;;8.61;7.10;;;;;;;;;;363949;145;864987;-59
2021/09/14 05:08:47;;;;;;;11.01;7.19;;;;;;;;;;364171;144;859187;-58
2021/09/14 05:09:48;;;;;;;11.06;7.88;;;;;;;;;;368131;144;857426;-57
2021/09/14 05:10:51;;;;;;;10.91;7.28;;;;;;;;;;363266;145;858825;-56
2021/09/14 05:11:53;;;;;;;8.40;7.09;;;;;;;;;;364258;144;858816;-56
2021/09/14 05:12:55;;;;;;;13.01;8.32;;;;;;;;;;363090;144;859789;-56
2021/09/14 05:13:56;;;;;;;11.16;7.37;;;;;;;;;;364483;144;857323;-57
2021/09/14 05:14:58;;;;;;;11.91;7.59;;;;;;;;;;363295;148;857185;-58
2021/09/14 05:15:59;;;;;;;10.58;7.08;;;;;;;;;;363084;144;857144;-57
2021/09/14 05:17:01;;;;;;;9.93;7.17;;;;;;;;;;363580;144;857131;-57
2021/09/14 05:18:09;;;;;;;11.28;7.41;;;;;;;;;;363232;148;857169;-57
2021/09/14 05:19:08;;;;;;;10.81;7.24;;;;;;;;;;362412;144;857667;-57
2021/09/14 05:20:12;;;;;;;9.09;6.78;;;;;;;;;;364588;144;860200;-57
2021/09/14 05:21:14;;;;;;;9.42;6.88;;;;;;;;;;366619;145;857720;-57
2021/09/14 05:22:19;;;;;;;10.38;7.01;;;;;;;;;;364434;145;857687;-57
2021/09/14 05:23:52;;;;;;;9.04;6.95;;;;;;;;;;364612;144;865447;-57
2021/09/14 05:24:29;;;;;;;11.02;7.54;;;;;;;;;;357727;145;857742;-58
2021/09/14 05:25:30;;;;;;;10.83;7.67;;;;;;;;;;363403;145;859443;-58
2021/09/14 05:26:32;;;;;;;9.25;6.83;;;;;;;;;;364425;144;857231;-58
2021/09/14 05:27:34;;;;;;;10.49;7.42;;;;;;;;;;363196;144;863963;-58
2021/09/14 05:28:35;;;;;;;11.20;7.44;;;;;;;;;;363115;144;856085;-57
2021/09/14 05:29:37;;;;;;;10.59;7.49;;;;;;;;;;363133;148;857227;-58
2021/09/14 05:30:40;;;;;;;10.09;7.43;;;;;;;;;;363582;144;857201;-58
2021/09/14 05:31:42;;;;;;;10.37;7.47;;;;;;;;;;369202;144;857154;-58
2021/09/14 05:32:43;;;;;;;11.97;7.14;;;;;;;;;;366426;145;857291;-57
2021/09/14 05:33:46;;;;;;;11.13;7.38;;;;;;;;;;363012;144;859068;-59
2021/09/14 05:34:48;;;;;;;8.43;7.07;;;;;;;;;;363844;144;857594;-58
2021/09/14 05:35:50;;;;;;;10.94;7.07;;;;;;;;;;363176;147;861947;-58
2021/09/14 05:36:52;;;;;;;13.25;7.37;;;;;;;;;;363212;148;865020;-58
2021/09/14 05:37:54;;;;;;;10.69;7.30;;;;;;;;;;365201;144;857292;-58
2021/09/14 05:38:56;;;;;;;11.15;7.14;;;;;;;;;;363887;144;865169;-58
2021/09/14 05:39:58;;;;;;;11.06;7.59;;;;;;;;;;363598;145;857154;-58
2021/09/14 05:41:01;;;;;;;12.46;7.37;;;;;;;;;;364493;145;857134;-57
2021/09/14 05:42:03;;;;;;;13.41;6.93;;;;;;;;;;362648;145;859044;-58
2021/09/14 05:43:05;;;;;;;9.73;7.21;;;;;;;;;;361888;145;857866;-56
2021/09/14 05:44:06;;;;;;;10.86;7.01;;;;;;;;;;366807;147;858372;-58
2021/09/14 05:45:09;;;;;;;9.07;6.98;;;;;;;;;;360845;145;862760;-56
2021/09/14 05:46:11;;;;;;;8.59;7.20;;;;;;;;;;361662;145;856444;-57
2021/09/14 05:47:12;;;;;;;8.46;7.01;;;;;;;;;;361251;147;857290;-57
2021/09/14 05:48:14;;;;;;;9.03;7.39;;;;;;;;;;361295;145;858951;-57
2021/09/14 05:49:16;;;;;;;10.74;6.91;;;;;;;;;;360136;145;858217;-57
2021/09/14 05:50:18;;;;;;;8.81;6.81;;;;;;;;;;363089;147;860150;-57
2021/09/14 05:51:20;;;;;;;10.42;7.14;;;;;;;;;;362384;148;858130;-58
2021/09/14 05:52:21;;;;;;;10.27;7.38;;;;;;;;;;360056;145;857435;-57
2021/09/14 05:53:23;;;;;;;8.85;6.88;;;;;;;;;;362556;145;858593;-57
2021/09/14 05:54:25;;;;;;;8.61;6.63;;;;;;;;;;361043;148;860330;-57
2021/09/14 05:55:26;;;;;;;10.59;6.95;;;;;;;;;;360778;145;857691;-58
2021/09/14 05:56:31;;;;;;;11.34;7.65;;;;;;;;;;360591;145;865056;-58
2021/09/14 05:57:33;;;;;;;11.04;6.96;;;;;;;;;;360312;146;864941;-57
2021/09/14 05:58:34;;;;;;;10.68;7.07;;;;;;;;;;360666;147;857620;-57
2021/09/14 05:59:36;;;;;;;9.19;6.75;;;;;;;;;;362448;145;859054;-57
2021/09/14 06:00:39;;;;;;;8.79;6.74;;;;;;;;;;360888;145;865974;-56
2021/09/14 06:01:40;;;;;;;8.64;6.64;;;;;;;;;;361426;147;858654;-56
2021/09/14 06:02:42;;;;;;;10.79;6.75;;;;;;;;;;362650;147;857298;-57
2021/09/14 06:03:43;;;;;;;11.20;7.04;;;;;;;;;;361282;145;857235;-57
2021/09/14 06:04:45;;;;;;;8.89;7.04;;;;;;;;;;364148;145;857287;-58
2021/09/14 06:05:47;;;;;;;10.49;7.19;;;;;;;;;;360581;148;866303;-57
2021/09/14 06:06:48;;;;;;;10.34;7.04;;;;;;;;;;361365;145;858214;-57
2021/09/14 06:07:50;;;;;;;8.85;6.59;;;;;;;;;;360956;145;865155;-56
2021/09/14 06:08:51;;;;;;;10.74;7.07;;;;;;;;;;359181;148;858778;-57
2021/09/14 06:09:53;;;;;;;13.54;7.36;;;;;;;;;;360503;146;857550;-57
2021/09/14 06:10:55;;;;;;;9.63;6.95;;;;;;;;;;361046;146;859981;-56
2021/09/14 06:11:56;;;;;;;9.10;6.91;;;;;;;;;;366774;145;858243;-56
2021/09/14 06:12:58;;;;;;;11.07;6.81;;;;;;;;;;362523;147;858909;-57
2021/09/14 06:13:59;;;;;;;12.44;6.54;;;;;;;;;;360182;145;858526;-57
2021/09/14 06:15:01;;;;;;;11.73;8.26;;;;;;;;;;360125;145;857239;-57
2021/09/14 06:16:03;;;;;;;10.16;7.11;;;;;;;;;;360577;148;857142;-57
2021/09/14 06:17:05;;;;;;;9.48;6.53;;;;;;;;;;363766;145;865391;-56
2021/09/14 06:18:06;;;;;;;8.78;7.08;;;;;;;;;;361610;146;857658;-57
2021/09/14 06:19:08;;;;;;;10.75;6.87;;;;;;;;;;362160;145;856634;-57
2021/09/14 06:20:10;;;;;;;9.85;7.07;;;;;;;;;;359436;147;868428;-57
2021/09/14 06:21:14;;;;;;;9.91;7.13;;;;;;;;;;360829;145;859063;-57
2021/09/14 06:22:17;;;;;;;9.58;6.87;;;;;;;;;;361445;145;858835;-57
2021/09/14 06:23:19;;;;;;;10.61;6.66;;;;;;;;;;362163;147;859025;-56
2021/09/14 06:24:20;;;;;;;9.51;6.77;;;;;;;;;;360401;145;858516;-57
2021/09/14 06:25:22;;;;;;;9.57;6.75;;;;;;;;;;360807;145;857628;-58
2021/09/14 06:26:24;;;;;;;13.66;7.27;;;;;;;;;;362904;145;857283;-57
2021/09/14 06:27:26;;;;;;;10.69;6.35;;;;;;;;;;361114;148;857679;-57
2021/09/14 06:28:28;;;;;;;13.34;7.34;;;;;;;;;;362496;145;857574;-57
2021/09/14 06:29:29;;;;;;;14.61;6.96;;;;;;;;;;363675;145;866774;-56
2021/09/14 06:30:31;;;;;;;11.03;6.49;;;;;;;;;;367197;145;857276;-57
2021/09/14 06:31:32;;;;;;;8.99;6.84;;;;;;;;;;361502;147;866631;-56
2021/09/14 06:32:34;;;;;;;9.71;6.96;;;;;;;;;;361392;145;857130;-57
2021/09/14 06:33:36;;;;;;;9.20;6.69;;;;;;;;;;361115;145;864878;-56
2021/09/14 06:34:37;;;;;;;9.60;6.96;;;;;;;;;;360863;148;857276;-57
2021/09/14 06:35:39;;;;;;;10.45;6.71;;;;;;;;;;360398;145;858960;-57
2021/09/14 06:36:40;;;;;;;9.98;6.81;;;;;;;;;;361902;145;857217;-57
2021/09/14 06:37:42;;;;;;;13.27;6.70;;;;;;;;;;362855;147;865022;-58
2021/09/14 06:38:43;;;;;;;8.64;6.56;;;;;;;;;;360783;148;857321;-56
2021/09/14 06:39:45;;;;;;;8.27;6.43;;;;;;;;;;361804;145;859392;-59
2021/09/14 06:40:47;;;;;;;9.15;6.93;;;;;;;;;;360646;145;859398;-56
2021/09/14 06:41:49;;;;;;;10.99;7.17;;;;;;;;;;362121;148;857273;-57
2021/09/14 06:42:50;;;;;;;9.44;6.29;;;;;;;;;;363285;144;866820;-57
2021/09/14 06:43:52;;;;;;;9.65;6.69;;;;;;;;;;363967;144;859467;-57
2021/09/14 06:44:53;;;;;;;8.22;5.91;;;;;;;;;;363793;145;866366;-58
2021/09/14 06:45:55;;;;;;;11.51;7.37;;;;;;;;;;364948;144;856539;-56
2021/09/14 06:46:57;;;;;;;10.52;6.30;;;;;;;;;;363781;144;856391;-58
2021/09/14 06:47:58;;;;;;;9.27;6.36;;;;;;;;;;365139;144;856580;-58
2021/09/14 06:49:00;;;;;;;10.08;6.29;;;;;;;;;;365106;144;856136;-55
2021/09/14 06:50:03;;;;;;;9.23;6.66;;;;;;;;;;364372;144;856231;-57
2021/09/14 06:51:07;;;;;;;9.61;6.44;;;;;;;;;;364143;144;864311;-58
2021/09/14 06:52:08;;;;;;;11.54;6.35;;;;;;;;;;365260;144;856252;-56
2021/09/14 06:53:10;;;;;;;13.06;7.14;;;;;;;;;;363312;145;856168;-57
2021/09/14 06:54:12;;;;;;;9.85;6.75;;;;;;;;;;364599;144;856148;-57
2021/09/14 06:55:14;;;;;;;10.61;6.25;;;;;;;;;;365415;144;857196;-56